sensor_id;sensor_type;location;lat;lon;timestamp;pressure;altitude;pressure_sealevel;temperature;humidity
5755;BME280;2902;42.130;24.732;2023-05-29T00:00:44;99153.38;;;18.24;100.00
5755;BME280;2902;42.130;24.732;2023-05-29T00:03:12;99159.88;;;18.28;100.00
5755;BME280;2902;42.130;24.732;2023-05-29T00:05:39;99147.28;;;18.33;100.00
5755;BME280;2902;42.130;24.732;2023-05-29T00:08:06;99149.25;;;18.38;100.00
5755;BME280;2902;42.130;24.732;2023-05-29T00:10:32;99146.03;;;18.41;100.00
5755;BME280;2902;42.130;24.732;2023-05-29T00:13:00;99148.22;;;18.44;100.00
5755;BME280;2902;42.130;24.732;2023-05-29T00:15:27;99151.53;;;18.51;100.00
5755;BME280;2902;42.130;24.732;2023-05-29T00:17:55;99147.34;;;18.65;100.00
5755;BME280;2902;42.130;24.732;2023-05-29T00:20:23;99149.06;;;18.76;100.00
5755;BME280;2902;42.130;24.732;2023-05-29T00:22:50;99145.41;;;18.92;100.00
5755;BME280;2902;42.130;24.732;2023-05-29T00:25:18;99151.16;;;19.05;100.00
5755;BME280;2902;42.130;24.732;2023-05-29T00:27:44;99159.56;;;19.14;100.00
5755;BME280;2902;42.130;24.732;2023-05-29T00:30:11;99137.22;;;19.13;100.00
5755;BME280;2902;42.130;24.732;2023-05-29T00:32:38;99141.75;;;19.08;100.00
5755;BME280;2902;42.130;24.732;2023-05-29T00:35:06;99137.69;;;19.00;100.00
5755;BME280;2902;42.130;24.732;2023-05-29T00:37:35;99141.38;;;18.89;100.00
5755;BME280;2902;42.130;24.732;2023-05-29T00:40:02;99142.09;;;18.80;100.00
5755;BME280;2902;42.130;24.732;2023-05-29T00:42:29;99136.63;;;18.70;100.00
5755;BME280;2902;42.130;24.732;2023-05-29T00:44:56;99146.63;;;18.74;100.00
5755;BME280;2902;42.130;24.732;2023-05-29T00:47:23;99141.41;;;18.63;100.00
5755;BME280;2902;42.130;24.732;2023-05-29T00:49:50;99134.41;;;18.62;100.00
5755;BME280;2902;42.130;24.732;2023-05-29T00:52:18;99140.31;;;18.59;100.00
5755;BME280;2902;42.130;24.732;2023-05-29T00:54:47;99139.47;;;18.58;100.00
5755;BME280;2902;42.130;24.732;2023-05-29T00:57:16;99126.34;;;18.62;100.00
5755;BME280;2902;42.130;24.732;2023-05-29T00:59:44;99122.53;;;18.58;100.00
5755;BME280;2902;42.130;24.732;2023-05-29T01:02:12;99123.25;;;18.48;100.00
5755;BME280;2902;42.130;24.732;2023-05-29T01:04:41;99129.53;;;18.59;100.00
5755;BME280;2902;42.130;24.732;2023-05-29T01:07:09;99136.91;;;18.68;100.00
5755;BME280;2902;42.130;24.732;2023-05-29T01:09:36;99136.06;;;18.68;100.00
5755;BME280;2902;42.130;24.732;2023-05-29T01:12:16;99123.69;;;18.67;100.00
5755;BME280;2902;42.130;24.732;2023-05-29T01:14:54;99120.44;;;18.65;100.00
5755;BME280;2902;42.130;24.732;2023-05-29T01:17:26;99126.59;;;18.60;100.00
5755;BME280;2902;42.130;24.732;2023-05-29T01:20:08;99128.59;;;18.75;100.00
5755;BME280;2902;42.130;24.732;2023-05-29T01:22:58;99121.66;;;18.84;100.00
5755;BME280;2902;42.130;24.732;2023-05-29T01:25:46;99120.53;;;18.75;100.00
5755;BME280;2902;42.130;24.732;2023-05-29T01:28:21;99122.59;;;18.63;100.00
5755;BME280;2902;42.130;24.732;2023-05-29T01:30:49;99126.91;;;18.69;100.00
5755;BME280;2902;42.130;24.732;2023-05-29T01:33:17;99120.03;;;18.78;100.00
5755;BME280;2902;42.130;24.732;2023-05-29T01:35:43;99116.00;;;18.80;100.00
5755;BME280;2902;42.130;24.732;2023-05-29T01:38:10;99122.22;;;18.86;100.00
5755;BME280;2902;42.130;24.732;2023-05-29T01:40:37;99113.03;;;18.82;100.00
5755;BME280;2902;42.130;24.732;2023-05-29T01:43:05;99123.06;;;18.91;100.00
5755;BME280;2902;42.130;24.732;2023-05-29T01:45:34;99122.88;;;19.03;100.00
5755;BME280;2902;42.130;24.732;2023-05-29T01:48:02;99120.22;;;19.08;100.00
5755;BME280;2902;42.130;24.732;2023-05-29T01:50:29;99114.88;;;19.13;100.00
5755;BME280;2902;42.130;24.732;2023-05-29T01:52:57;99121.34;;;19.17;100.00
5755;BME280;2902;42.130;24.732;2023-05-29T01:55:24;99123.50;;;19.15;100.00
5755;BME280;2902;42.130;24.732;2023-05-29T01:57:50;99120.53;;;19.16;99.77
5755;BME280;2902;42.130;24.732;2023-05-29T02:00:18;99121.88;;;19.14;99.24
5755;BME280;2902;42.130;24.732;2023-05-29T02:02:47;99126.75;;;19.17;99.74
5755;BME280;2902;42.130;24.732;2023-05-29T02:05:13;99124.06;;;19.22;99.59
5755;BME280;2902;42.130;24.732;2023-05-29T02:07:41;99137.34;;;19.28;99.42
5755;BME280;2902;42.130;24.732;2023-05-29T02:10:08;99126.22;;;19.20;98.53
5755;BME280;2902;42.130;24.732;2023-05-29T02:12:35;99134.56;;;19.18;98.37
5755;BME280;2902;42.130;24.732;2023-05-29T02:15:02;99140.69;;;19.09;98.43
5755;BME280;2902;42.130;24.732;2023-05-29T02:17:29;99135.81;;;19.06;98.53
5755;BME280;2902;42.130;24.732;2023-05-29T02:19:57;99136.38;;;19.08;98.94
5755;BME280;2902;42.130;24.732;2023-05-29T02:22:24;99131.53;;;19.10;99.22
5755;BME280;2902;42.130;24.732;2023-05-29T02:24:51;99137.50;;;19.17;99.43
5755;BME280;2902;42.130;24.732;2023-05-29T02:27:17;99128.34;;;19.18;98.18
5755;BME280;2902;42.130;24.732;2023-05-29T02:29:44;99128.59;;;19.11;98.99
5755;BME280;2902;42.130;24.732;2023-05-29T02:32:11;99140.31;;;18.95;98.54
5755;BME280;2902;42.130;24.732;2023-05-29T02:34:37;99131.34;;;18.85;99.44
5755;BME280;2902;42.130;24.732;2023-05-29T02:37:05;99137.75;;;18.74;98.85
5755;BME280;2902;42.130;24.732;2023-05-29T02:39:33;99146.09;;;18.77;100.00
5755;BME280;2902;42.130;24.732;2023-05-29T02:42:00;99145.63;;;18.85;100.00
5755;BME280;2902;42.130;24.732;2023-05-29T02:44:26;99140.84;;;18.92;99.96
5755;BME280;2902;42.130;24.732;2023-05-29T02:46:53;99137.38;;;18.97;100.00
5755;BME280;2902;42.130;24.732;2023-05-29T02:49:20;99143.84;;;19.01;99.84
5755;BME280;2902;42.130;24.732;2023-05-29T02:51:46;99142.25;;;19.00;100.00
5755;BME280;2902;42.130;24.732;2023-05-29T02:54:14;99141.44;;;18.99;99.50
5755;BME280;2902;42.130;24.732;2023-05-29T02:56:41;99138.97;;;18.98;100.00
5755;BME280;2902;42.130;24.732;2023-05-29T02:59:08;99141.97;;;18.96;100.00
5755;BME280;2902;42.130;24.732;2023-05-29T03:01:34;99151.91;;;18.96;100.00
5755;BME280;2902;42.130;24.732;2023-05-29T03:04:01;99157.03;;;18.97;100.00
5755;BME280;2902;42.130;24.732;2023-05-29T03:06:28;99158.41;;;19.00;100.00
5755;BME280;2902;42.130;24.732;2023-05-29T03:08:54;99158.91;;;18.97;100.00
5755;BME280;2902;42.130;24.732;2023-05-29T03:11:23;99151.63;;;18.92;100.00
5755;BME280;2902;42.130;24.732;2023-05-29T03:13:50;99156.09;;;18.82;100.00
5755;BME280;2902;42.130;24.732;2023-05-29T03:16:16;99157.19;;;18.86;100.00
5755;BME280;2902;42.130;24.732;2023-05-29T03:18:43;99162.53;;;18.81;100.00
5755;BME280;2902;42.130;24.732;2023-05-29T03:21:10;99163.63;;;18.80;100.00
5755;BME280;2902;42.130;24.732;2023-05-29T03:23:36;99164.72;;;18.84;100.00
5755;BME280;2902;42.130;24.732;2023-05-29T03:26:03;99162.06;;;18.89;100.00
5755;BME280;2902;42.130;24.732;2023-05-29T03:28:32;99167.47;;;18.89;100.00
5755;BME280;2902;42.130;24.732;2023-05-29T03:30:59;99168.50;;;18.83;100.00
5755;BME280;2902;42.130;24.732;2023-05-29T03:33:27;99165.44;;;18.74;100.00
5755;BME280;2902;42.130;24.732;2023-05-29T03:35:53;99168.66;;;18.71;100.00
5755;BME280;2902;42.130;24.732;2023-05-29T03:38:20;99169.13;;;18.63;100.00
5755;BME280;2902;42.130;24.732;2023-05-29T03:40:47;99166.09;;;18.55;100.00
5755;BME280;2902;42.130;24.732;2023-05-29T03:43:14;99170.56;;;18.44;100.00
5755;BME280;2902;42.130;24.732;2023-05-29T03:45:42;99168.13;;;18.43;100.00
5755;BME280;2902;42.130;24.732;2023-05-29T03:48:08;99169.75;;;18.44;100.00
5755;BME280;2902;42.130;24.732;2023-05-29T03:50:35;99168.22;;;18.53;100.00
5755;BME280;2902;42.130;24.732;2023-05-29T03:53:02;99164.56;;;18.64;100.00
5755;BME280;2902;42.130;24.732;2023-05-29T03:55:28;99166.78;;;18.72;100.00
5755;BME280;2902;42.130;24.732;2023-05-29T03:57:55;99173.00;;;18.72;100.00
5755;BME280;2902;42.130;24.732;2023-05-29T04:00:22;99169.00;;;18.80;100.00
5755;BME280;2902;42.130;24.732;2023-05-29T04:02:50;99169.00;;;18.80;100.00
5755;BME280;2902;42.130;24.732;2023-05-29T04:05:17;99164.66;;;18.74;100.00
5755;BME280;2902;42.130;24.732;2023-05-29T04:07:44;99182.22;;;18.81;100.00
5755;BME280;2902;42.130;24.732;2023-05-29T04:10:10;99188.44;;;18.87;100.00
5755;BME280;2902;42.130;24.732;2023-05-29T04:12:37;99182.63;;;19.00;100.00
5755;BME280;2902;42.130;24.732;2023-05-29T04:15:05;99180.09;;;19.20;100.00
5755;BME280;2902;42.130;24.732;2023-05-29T04:17:32;99189.63;;;19.32;97.81
5755;BME280;2902;42.130;24.732;2023-05-29T04:20:00;99187.72;;;19.28;95.97
5755;BME280;2902;42.130;24.732;2023-05-29T04:22:33;99195.41;;;19.19;95.46
5755;BME280;2902;42.130;24.732;2023-05-29T04:25:00;99195.66;;;19.13;96.17
5755;BME280;2902;42.130;24.732;2023-05-29T04:27:29;99195.22;;;19.26;98.97
5755;BME280;2902;42.130;24.732;2023-05-29T04:29:57;99194.84;;;19.49;97.45
5755;BME280;2902;42.130;24.732;2023-05-29T04:32:24;99203.28;;;19.62;94.04
5755;BME280;2902;42.130;24.732;2023-05-29T04:34:51;99205.66;;;19.59;93.60
5755;BME280;2902;42.130;24.732;2023-05-29T04:37:19;99205.75;;;19.69;93.86
5755;BME280;2902;42.130;24.732;2023-05-29T04:39:54;99219.28;;;19.84;94.00
5755;BME280;2902;42.130;24.732;2023-05-29T04:42:21;99212.88;;;20.00;93.70
5755;BME280;2902;42.130;24.732;2023-05-29T04:44:48;99220.56;;;20.18;90.87
5755;BME280;2902;42.130;24.732;2023-05-29T04:47:15;99219.22;;;20.25;91.95
5755;BME280;2902;42.130;24.732;2023-05-29T04:49:44;99220.06;;;20.36;91.48
5755;BME280;2902;42.130;24.732;2023-05-29T04:52:14;99224.44;;;20.52;89.91
5755;BME280;2902;42.130;24.732;2023-05-29T04:54:42;99224.44;;;20.57;90.78
5755;BME280;2902;42.130;24.732;2023-05-29T04:57:08;99218.25;;;20.72;87.17
5755;BME280;2902;42.130;24.732;2023-05-29T04:59:35;99233.63;;;20.66;87.16
5755;BME280;2902;42.130;24.732;2023-05-29T05:02:02;99233.34;;;20.63;88.04
5755;BME280;2902;42.130;24.732;2023-05-29T05:04:29;99232.00;;;20.55;86.83
5755;BME280;2902;42.130;24.732;2023-05-29T05:06:55;99236.31;;;20.51;88.67
5755;BME280;2902;42.130;24.732;2023-05-29T05:09:22;99239.56;;;20.63;89.44
5755;BME280;2902;42.130;24.732;2023-05-29T05:11:50;99234.75;;;20.75;88.77
5755;BME280;2902;42.130;24.732;2023-05-29T05:14:17;99240.47;;;20.94;87.84
5755;BME280;2902;42.130;24.732;2023-05-29T05:16:44;99240.72;;;21.07;85.16
5755;BME280;2902;42.130;24.732;2023-05-29T05:19:10;99245.06;;;21.08;85.31
5755;BME280;2902;42.130;24.732;2023-05-29T05:21:37;99251.81;;;21.11;84.72
5755;BME280;2902;42.130;24.732;2023-05-29T05:24:04;99248.84;;;21.12;83.40
5755;BME280;2902;42.130;24.732;2023-05-29T05:26:31;99245.88;;;21.14;85.24
5755;BME280;2902;42.130;24.732;2023-05-29T05:28:59;99250.72;;;21.12;85.12
5755;BME280;2902;42.130;24.732;2023-05-29T05:31:26;99258.03;;;21.16;82.86
5755;BME280;2902;42.130;24.732;2023-05-29T05:33:53;99248.84;;;21.17;84.38
5755;BME280;2902;42.130;24.732;2023-05-29T05:36:19;99260.16;;;21.19;83.75
5755;BME280;2902;42.130;24.732;2023-05-29T05:38:46;99261.25;;;21.03;82.75
5755;BME280;2902;42.130;24.732;2023-05-29T05:41:13;99268.75;;;20.76;83.37
5755;BME280;2902;42.130;24.732;2023-05-29T05:43:39;99266.31;;;20.75;84.49
5755;BME280;2902;42.130;24.732;2023-05-29T05:46:07;99266.56;;;20.63;84.87
5755;BME280;2902;42.130;24.732;2023-05-29T05:48:34;99253.56;;;20.50;86.96
5755;BME280;2902;42.130;24.732;2023-05-29T05:51:01;99265.47;;;20.59;87.38
5755;BME280;2902;42.130;24.732;2023-05-29T05:53:27;99260.59;;;20.56;87.03
5755;BME280;2902;42.130;24.732;2023-05-29T05:55:54;99263.78;;;20.38;87.67
5755;BME280;2902;42.130;24.732;2023-05-29T05:58:21;99260.53;;;20.31;88.45
5755;BME280;2902;42.130;24.732;2023-05-29T06:00:47;99259.16;;;20.23;88.54
5755;BME280;2902;42.130;24.732;2023-05-29T06:03:19;99260.97;;;20.13;88.26
5755;BME280;2902;42.130;24.732;2023-05-29T06:05:45;99266.81;;;20.00;90.27
5755;BME280;2902;42.130;24.732;2023-05-29T06:08:12;99260.91;;;20.08;89.65
5755;BME280;2902;42.130;24.732;2023-05-29T06:10:40;99249.16;;;20.19;90.06
5755;BME280;2902;42.130;24.732;2023-05-29T06:13:07;99259.44;;;20.32;89.74
5755;BME280;2902;42.130;24.732;2023-05-29T06:15:33;99257.81;;;20.31;89.07
5755;BME280;2902;42.130;24.732;2023-05-29T06:18:01;99246.19;;;20.25;88.76
5755;BME280;2902;42.130;24.732;2023-05-29T06:20:29;99252.94;;;20.28;88.48
5755;BME280;2902;42.130;24.732;2023-05-29T06:22:56;99248.13;;;20.40;90.27
5755;BME280;2902;42.130;24.732;2023-05-29T06:25:23;99242.22;;;20.48;88.39
5755;BME280;2902;42.130;24.732;2023-05-29T06:27:55;99258.47;;;20.63;88.49
5755;BME280;2902;42.130;24.732;2023-05-29T06:30:22;99268.19;;;20.64;88.44
5755;BME280;2902;42.130;24.732;2023-05-29T06:32:49;99259.28;;;20.74;88.03
5755;BME280;2902;42.130;24.732;2023-05-29T06:35:16;99263.88;;;20.68;86.54
5755;BME280;2902;42.130;24.732;2023-05-29T06:37:44;99251.94;;;20.44;87.39
5755;BME280;2902;42.130;24.732;2023-05-29T06:40:12;99268.19;;;20.64;88.68
5755;BME280;2902;42.130;24.732;2023-05-29T06:42:39;99266.06;;;20.76;87.55
5755;BME280;2902;42.130;24.732;2023-05-29T06:45:07;99259.63;;;20.92;87.60
5755;BME280;2902;42.130;24.732;2023-05-29T06:47:33;99253.13;;;20.93;87.92
5755;BME280;2902;42.130;24.732;2023-05-29T06:50:00;99266.13;;;21.01;87.73
5755;BME280;2902;42.130;24.732;2023-05-29T06:52:27;99270.44;;;21.07;86.96
5755;BME280;2902;42.130;24.732;2023-05-29T06:54:55;99274.22;;;21.31;87.70
5755;BME280;2902;42.130;24.732;2023-05-29T06:57:22;99276.38;;;21.54;86.04
5755;BME280;2902;42.130;24.732;2023-05-29T06:59:48;99270.41;;;21.82;85.66
5755;BME280;2902;42.130;24.732;2023-05-29T07:02:15;99282.53;;;21.95;81.66
5755;BME280;2902;42.130;24.732;2023-05-29T07:04:42;99283.91;;;22.02;82.22
5755;BME280;2902;42.130;24.732;2023-05-29T07:07:08;99278.41;;;22.27;82.01
5755;BME280;2902;42.130;24.732;2023-05-29T07:09:35;99286.94;;;22.59;80.24
5755;BME280;2902;42.130;24.732;2023-05-29T07:12:04;99286.44;;;22.52;78.45
5755;BME280;2902;42.130;24.732;2023-05-29T07:14:30;99287.78;;;22.45;79.29
5755;BME280;2902;42.130;24.732;2023-05-29T07:16:57;99283.72;;;22.52;78.95
5755;BME280;2902;42.130;24.732;2023-05-29T07:19:24;99282.94;;;22.47;77.68
5755;BME280;2902;42.130;24.732;2023-05-29T07:21:51;99300.50;;;22.54;77.04
5755;BME280;2902;42.130;24.732;2023-05-29T07:24:18;99298.34;;;22.56;77.14
5755;BME280;2902;42.130;24.732;2023-05-29T07:26:44;99293.94;;;22.65;76.51
5755;BME280;2902;42.130;24.732;2023-05-29T07:29:12;99295.78;;;22.75;76.54
5755;BME280;2902;42.130;24.732;2023-05-29T07:31:40;99281.97;;;22.76;75.70
5755;BME280;2902;42.130;24.732;2023-05-29T07:34:07;99301.97;;;22.85;75.66
5755;BME280;2902;42.130;24.732;2023-05-29T07:36:34;99300.66;;;22.73;75.77
5755;BME280;2902;42.130;24.732;2023-05-29T07:39:01;99290.88;;;22.82;76.47
5755;BME280;2902;42.130;24.732;2023-05-29T07:41:28;99300.66;;;23.16;76.59
5755;BME280;2902;42.130;24.732;2023-05-29T07:43:54;99308.13;;;23.39;73.73
5755;BME280;2902;42.130;24.732;2023-05-29T07:46:23;99308.59;;;23.46;74.01
5755;BME280;2902;42.130;24.732;2023-05-29T07:48:49;99305.03;;;23.51;72.85
5755;BME280;2902;42.130;24.732;2023-05-29T07:51:16;99310.78;;;23.44;72.20
5755;BME280;2902;42.130;24.732;2023-05-29T07:53:44;99302.78;;;23.29;72.78
5755;BME280;2902;42.130;24.732;2023-05-29T07:56:10;99315.19;;;23.35;72.48
5755;BME280;2902;42.130;24.732;2023-05-29T07:58:37;99315.69;;;23.42;70.62
5755;BME280;2902;42.130;24.732;2023-05-29T08:01:05;99315.63;;;23.47;71.14
5755;BME280;2902;42.130;24.732;2023-05-29T08:03:33;99313.13;;;23.56;72.49
5755;BME280;2902;42.130;24.732;2023-05-29T08:06:00;99313.59;;;23.63;71.38
5755;BME280;2902;42.130;24.732;2023-05-29T08:08:26;99309.00;;;23.63;71.02
5755;BME280;2902;42.130;24.732;2023-05-29T08:10:53;99316.78;;;23.70;69.59
5755;BME280;2902;42.130;24.732;2023-05-29T08:13:20;99308.19;;;23.63;70.67
5755;BME280;2902;42.130;24.732;2023-05-29T08:15:47;99309.00;;;23.63;71.57
5755;BME280;2902;42.130;24.732;2023-05-29T08:18:14;99306.56;;;23.62;71.41
5755;BME280;2902;42.130;24.732;2023-05-29T08:20:42;99305.75;;;23.61;71.15
5755;BME280;2902;42.130;24.732;2023-05-29T08:23:10;99311.66;;;23.68;70.97
5755;BME280;2902;42.130;24.732;2023-05-29T08:25:37;99305.50;;;23.91;70.73
5755;BME280;2902;42.130;24.732;2023-05-29T08:28:03;99316.03;;;24.21;67.71
5755;BME280;2902;42.130;24.732;2023-05-29T08:30:30;99307.03;;;24.26;67.42
5755;BME280;2902;42.130;24.732;2023-05-29T08:32:57;99309.72;;;24.49;66.37
5755;BME280;2902;42.130;24.732;2023-05-29T08:35:24;99303.59;;;24.62;66.23
5755;BME280;2902;42.130;24.732;2023-05-29T08:37:52;99294.97;;;24.55;65.16
5755;BME280;2902;42.130;24.732;2023-05-29T08:40:19;99285.63;;;24.85;66.38
5755;BME280;2902;42.130;24.732;2023-05-29T08:42:47;99288.72;;;25.16;64.82
5755;BME280;2902;42.130;24.732;2023-05-29T08:45:18;99292.75;;;25.37;61.68
5755;BME280;2902;42.130;24.732;2023-05-29T08:47:51;99297.16;;;25.65;60.83
5755;BME280;2902;42.130;24.732;2023-05-29T08:50:19;99298.41;;;25.86;58.87
5755;BME280;2902;42.130;24.732;2023-05-29T08:52:46;99295.56;;;25.96;58.69
5755;BME280;2902;42.130;24.732;2023-05-29T08:55:14;99291.63;;;26.02;59.54
5755;BME280;2902;42.130;24.732;2023-05-29T08:57:41;99285.78;;;26.22;58.85
5755;BME280;2902;42.130;24.732;2023-05-29T09:00:11;99285.56;;;26.32;59.88
5755;BME280;2902;42.130;24.732;2023-05-29T09:02:38;99284.38;;;26.38;58.87
5755;BME280;2902;42.130;24.732;2023-05-29T09:05:06;99285.25;;;26.33;60.82
5755;BME280;2902;42.130;24.732;2023-05-29T09:07:34;99286.78;;;26.39;56.72
5755;BME280;2902;42.130;24.732;2023-05-29T09:10:04;99298.38;;;26.18;56.03
5755;BME280;2902;42.130;24.732;2023-05-29T09:12:33;99282.47;;;26.25;58.10
5755;BME280;2902;42.130;24.732;2023-05-29T09:15:00;99283.78;;;26.27;59.74
5755;BME280;2902;42.130;24.732;2023-05-29T09:17:30;99292.84;;;26.23;57.13
5755;BME280;2902;42.130;24.732;2023-05-29T09:19:58;99270.84;;;26.19;62.88
5755;BME280;2902;42.130;24.732;2023-05-29T09:22:26;99288.63;;;26.17;58.76
5755;BME280;2902;42.130;24.732;2023-05-29T09:24:52;99285.97;;;26.12;58.47
5755;BME280;2902;42.130;24.732;2023-05-29T09:27:21;99269.03;;;26.01;62.99
5755;BME280;2902;42.130;24.732;2023-05-29T09:29:49;99276.59;;;26.31;61.83
5755;BME280;2902;42.130;24.732;2023-05-29T09:32:17;99275.66;;;26.49;61.14
5755;BME280;2902;42.130;24.732;2023-05-29T09:34:45;99278.59;;;26.66;59.31
5755;BME280;2902;42.130;24.732;2023-05-29T09:37:12;99285.03;;;26.84;58.07
5755;BME280;2902;42.130;24.732;2023-05-29T09:39:45;99293.03;;;26.67;55.97
5755;BME280;2902;42.130;24.732;2023-05-29T09:42:13;99285.38;;;26.42;57.43
5755;BME280;2902;42.130;24.732;2023-05-29T09:44:40;99286.38;;;26.46;56.41
5755;BME280;2902;42.130;24.732;2023-05-29T09:47:08;99282.13;;;26.53;58.43
5755;BME280;2902;42.130;24.732;2023-05-29T09:49:40;99286.28;;;26.64;56.81
5755;BME280;2902;42.130;24.732;2023-05-29T09:52:07;99288.50;;;26.62;56.80
5755;BME280;2902;42.130;24.732;2023-05-29T09:54:34;99289.47;;;26.53;55.88
5755;BME280;2902;42.130;24.732;2023-05-29T09:57:03;99265.59;;;26.23;55.73
5755;BME280;2902;42.130;24.732;2023-05-29T09:59:31;99266.41;;;26.23;58.16
5755;BME280;2902;42.130;24.732;2023-05-29T10:02:01;99258.34;;;26.18;57.61
5755;BME280;2902;42.130;24.732;2023-05-29T10:04:31;99261.28;;;26.22;56.35
5755;BME280;2902;42.130;24.732;2023-05-29T10:07:02;99255.72;;;26.27;57.44
5755;BME280;2902;42.130;24.732;2023-05-29T10:09:32;99259.56;;;26.39;56.72
5755;BME280;2902;42.130;24.732;2023-05-29T10:12:00;99248.13;;;26.51;56.97
5755;BME280;2902;42.130;24.732;2023-05-29T10:14:30;99258.41;;;26.54;54.25
5755;BME280;2902;42.130;24.732;2023-05-29T10:17:02;99250.97;;;26.46;55.42
5755;BME280;2902;42.130;24.732;2023-05-29T10:19:36;99247.03;;;26.38;56.12
5755;BME280;2902;42.130;24.732;2023-05-29T10:22:04;99252.47;;;26.38;55.55
5755;BME280;2902;42.130;24.732;2023-05-29T10:24:32;99246.22;;;26.38;56.75
5755;BME280;2902;42.130;24.732;2023-05-29T10:26:59;99236.63;;;26.54;57.02
5755;BME280;2902;42.130;24.732;2023-05-29T10:29:29;99241.31;;;26.75;57.22
5755;BME280;2902;42.130;24.732;2023-05-29T10:32:06;99244.53;;;26.91;53.06
5755;BME280;2902;42.130;24.732;2023-05-29T10:34:42;99242.53;;;26.83;53.97
5755;BME280;2902;42.130;24.732;2023-05-29T10:37:20;99234.84;;;26.85;53.12
5755;BME280;2902;42.130;24.732;2023-05-29T10:39:50;99245.78;;;26.71;48.94
5755;BME280;2902;42.130;24.732;2023-05-29T10:42:40;99228.03;;;26.74;54.28
5755;BME280;2902;42.130;24.732;2023-05-29T10:45:08;99239.56;;;26.93;52.18
5755;BME280;2902;42.130;24.732;2023-05-29T10:47:35;99246.13;;;27.14;51.72
5755;BME280;2902;42.130;24.732;2023-05-29T10:50:04;99224.47;;;27.31;56.81
5755;BME280;2902;42.130;24.732;2023-05-29T10:52:31;99232.56;;;27.44;53.67
5755;BME280;2902;42.130;24.732;2023-05-29T10:54:58;99232.72;;;27.70;51.89
5755;BME280;2902;42.130;24.732;2023-05-29T10:57:26;99236.78;;;27.81;50.02
5755;BME280;2902;42.130;24.732;2023-05-29T10:59:59;99226.88;;;27.85;51.09
5755;BME280;2902;42.130;24.732;2023-05-29T11:02:26;99226.13;;;27.93;48.99
5755;BME280;2902;42.130;24.732;2023-05-29T11:05:21;99217.63;;;27.72;52.10
5755;BME280;2902;42.130;24.732;2023-05-29T11:07:57;99219.59;;;27.80;50.19
5755;BME280;2902;42.130;24.732;2023-05-29T11:10:44;99223.03;;;27.86;48.88
5755;BME280;2902;42.130;24.732;2023-05-29T11:13:23;99214.75;;;28.08;48.29
5755;BME280;2902;42.130;24.732;2023-05-29T11:16:10;99219.97;;;28.35;48.65
5755;BME280;2902;42.130;24.732;2023-05-29T11:18:41;99213.78;;;28.68;48.34
5755;BME280;2902;42.130;24.732;2023-05-29T11:21:30;99222.63;;;29.25;45.00
5755;BME280;2902;42.130;24.732;2023-05-29T11:23:57;99213.06;;;29.48;46.38
5755;BME280;2902;42.130;24.732;2023-05-29T11:26:26;99217.72;;;29.73;44.43
5755;BME280;2902;42.130;24.732;2023-05-29T11:28:53;99207.53;;;29.74;43.58
5755;BME280;2902;42.130;24.732;2023-05-29T11:31:20;99212.16;;;29.90;46.17
5755;BME280;2902;42.130;24.732;2023-05-29T11:33:49;99214.47;;;29.71;43.03
5755;BME280;2902;42.130;24.732;2023-05-29T11:36:17;99205.44;;;29.79;42.60
5755;BME280;2902;42.130;24.732;2023-05-29T11:38:46;99206.38;;;29.83;44.39
5755;BME280;2902;42.130;24.732;2023-05-29T11:41:13;99208.75;;;29.93;44.12
5755;BME280;2902;42.130;24.732;2023-05-29T11:43:40;99197.31;;;29.91;46.08
5755;BME280;2902;42.130;24.732;2023-05-29T11:46:16;99193.34;;;29.80;47.19
5755;BME280;2902;42.130;24.732;2023-05-29T11:48:45;99194.47;;;29.79;45.72
5755;BME280;2902;42.130;24.732;2023-05-29T11:51:12;99178.09;;;29.54;46.98
5755;BME280;2902;42.130;24.732;2023-05-29T11:53:40;99183.97;;;29.35;45.32
5755;BME280;2902;42.130;24.732;2023-05-29T11:56:09;99182.41;;;29.17;47.53
5755;BME280;2902;42.130;24.732;2023-05-29T11:58:37;99175.00;;;29.09;46.23
5755;BME280;2902;42.130;24.732;2023-05-29T12:01:04;99177.88;;;28.95;45.44
5755;BME280;2902;42.130;24.732;2023-05-29T12:03:32;99174.34;;;28.61;47.00
5755;BME280;2902;42.130;24.732;2023-05-29T12:06:03;99158.13;;;28.56;45.72
5755;BME280;2902;42.130;24.732;2023-05-29T12:08:32;99143.00;;;28.58;48.31
5755;BME280;2902;42.130;24.732;2023-05-29T12:10:59;99155.38;;;28.73;47.45
5755;BME280;2902;42.130;24.732;2023-05-29T12:13:27;99150.88;;;28.60;47.37
5755;BME280;2902;42.130;24.732;2023-05-29T12:15:57;99144.47;;;28.56;48.72
5755;BME280;2902;42.130;24.732;2023-05-29T12:18:24;99141.25;;;28.54;49.74
5755;BME280;2902;42.130;24.732;2023-05-29T12:20:56;99148.00;;;28.73;49.07
5755;BME280;2902;42.130;24.732;2023-05-29T12:23:24;99150.41;;;28.75;46.02
5755;BME280;2902;42.130;24.732;2023-05-29T12:25:51;99157.31;;;28.81;46.69
5755;BME280;2902;42.130;24.732;2023-05-29T12:28:17;99157.66;;;28.71;49.25
5755;BME280;2902;42.130;24.732;2023-05-29T12:30:46;99157.31;;;28.64;48.28
5755;BME280;2902;42.130;24.732;2023-05-29T12:33:25;99164.53;;;28.51;44.53
5755;BME280;2902;42.130;24.732;2023-05-29T12:35:53;99149.59;;;28.57;49.44
5755;BME280;2902;42.130;24.732;2023-05-29T12:38:19;99150.72;;;28.65;46.88
5755;BME280;2902;42.130;24.732;2023-05-29T12:40:48;99145.59;;;28.80;46.95
5755;BME280;2902;42.130;24.732;2023-05-29T12:43:16;99151.53;;;28.91;46.57
5755;BME280;2902;42.130;24.732;2023-05-29T12:45:42;99157.63;;;28.88;44.79
5755;BME280;2902;42.130;24.732;2023-05-29T12:48:10;99144.41;;;28.90;46.62
5755;BME280;2902;42.130;24.732;2023-05-29T12:50:38;99147.81;;;28.95;44.40
5755;BME280;2902;42.130;24.732;2023-05-29T12:53:06;99136.22;;;28.90;45.91
5755;BME280;2902;42.130;24.732;2023-05-29T12:55:34;99133.19;;;28.83;46.91
5755;BME280;2902;42.130;24.732;2023-05-29T12:58:04;99141.53;;;28.78;44.67
5755;BME280;2902;42.130;24.732;2023-05-29T13:00:32;99140.13;;;28.72;43.88
5755;BME280;2902;42.130;24.732;2023-05-29T13:02:59;99134.16;;;28.70;46.07
5755;BME280;2902;42.130;24.732;2023-05-29T13:05:27;99129.66;;;28.57;46.36
5755;BME280;2902;42.130;24.732;2023-05-29T13:07:54;99133.50;;;28.39;46.76
5755;BME280;2902;42.130;24.732;2023-05-29T13:10:21;99128.66;;;28.36;46.90
5755;BME280;2902;42.130;24.732;2023-05-29T13:12:49;99121.75;;;28.30;49.02